Oulu, Finlandia

6:21 AM EEST en Julio 31, 2014 (GMT +0300)
Oulu (EFOU) Alt 49 ft | 64.93 °N, 25.35 °E | Change Station

Current weather conditions updated 31 minutes ago

Overcast
Nublado
66 ° F
Sensación térmica 66 ° F
N
9
Viento Variable Viento desde Sur

Hoy se prevé un día Más frío que ayer. Tormentas..

Hoy
Alta -- | Baja -- ° F
--% Posibilidad de precipitaciones
Ayer
Alta -- | Baja -- ° F
Precip. -- pul
4:12 AM 10:34 PM
Creciente, 15% visible
Presión 29.59 pul
Visibilidad 6.2 Millas
Nubes Muy nublado 1100 ft
Muy nublado 2200 ft
Nublado 2800 ft
Punto de rocío 64 ° F
Humedad 94%
Precipitaciones 0.00 pul
Espesor de la nieve No disponible.
UV 0 de una escala de 12
Polen No disponible.
Calidad del aire No disponible.
Flu Activity No disponible.
METAR EFOU 310250Z AUTO 18008KT 150V210 9999 BKN011/// BKN022/// OVC028/// 19/18 Q1002

More Conditions Fewer Conditions

Presión 29.59 pul
Visibilidad 6.2 Millas
Nubes Muy nublado 1100 ft
Muy nublado 2200 ft
Nublado 2800 ft
Punto de rocío 64 ° F
Humedad 94%
Precipitaciones 0.00 pul
Espesor de la nieve No disponible.
UV 0 de una escala de 12
Polen No disponible.
Calidad del aire No disponible.
Flu Activity No disponible.
METAR EFOU 310250Z AUTO 18008KT 150V210 9999 BKN011/// BKN022/// OVC028/// 19/18 Q1002

More Conditions Fewer Conditions

10-Day Weather Forecast

Almanac

Astronomía

Jul. 31, 2014 Salida Puesta
Hora real 4:12 AM EEST 10:34 PM EEST
Crepúsculo civil 2:22 AM EEST 12:18 AM EEST
Crepúsculo náutico Sun does not rise Sun does not rise
Crepúsculo astronómico Sun does not rise Sun does not rise
Luna 10:27 AM EEST 10:24 PM EEST
Horas de luz 21h 56m
Horas de luz
18h 21m
Tomorrow will be 7m 1s shorter.
Creciente, 15% of the Moon is Illuminated
Jul 30
Creciente
Ago 3
Cuarto creciente
Ago 10
Luna llena
Ago 17
Cuarto menguante
Ago 25
Nueva

Extremos de ayer

Máximos del país Bajas del país

Community

WunderPhotos

Upload Photos

1,739,286 ¡fotos cargadas!

Nearby

Calidad del aire

Not available.

Grosos de nieve

Not available.

Actividad de terremotos

Ciudad Distance Mag. Tiempo y dato
No hay informes recientes de la actividad sísmica.
Magnitud mínima muestra es 2,5.

Temperaturas de aguas costeras

Lugar Temperatura
Sin partes meteorológicos de las estaciones

Estaciones meteorológicas cercanas

Ubicación de la estación Temp. Punto de rocío Humedad Viento Precip. Alt Actualizado Tipo
Oulunsalo, Oulunsalo 65.7 ° F - - Norte  a  - - / hr 0 ft 6:19 AM EEST Normal
Kempele, Rajakorpi 66.6 ° F 66 ° F 99% Sur  a  4.5 mph 0.00 pul / hr 36 ft 6:20 AM EEST Normal
Kuivasjarvi, Suomi 64.9 ° F 65 ° F 99% Norte  a  0.0 mph 0.00 pul / hr 59 ft 6:16 AM EEST Normal
Jylkynkangas, Oulu 64.3 ° F 64 ° F 98% SSO  a  2.0 mph 0.00 pul / hr 102 ft 6:18 AM EEST Normal
Herukka, Oulu 64.7 ° F 64 ° F 96% SE  a  2.0 mph 0.00 pul / hr 49 ft 6:20 AM EEST Normal
Virpiniemi, Haukipudas 69.1 ° F 64 ° F 85% ONO  a  5.7 mph 0.00 pul / hr 50 ft 6:21 AM EEST Rapid Fire

Show More Stations Show Fewer Stations